createdAt,value
2018-02-02T00:00:40.002Z,3.97
2018-02-02T00:03:07.617Z,7.60
2018-02-02T00:05:35.795Z,4.18
2018-02-02T00:08:03.436Z,2.95
2018-02-02T00:10:31.045Z,3.90
2018-02-02T00:12:58.658Z,7.75
2018-02-02T00:15:27.076Z,4.90
2018-02-02T00:17:54.689Z,4.00
2018-02-02T00:20:22.297Z,4.70
2018-02-02T00:22:50.721Z,3.47
2018-02-02T00:25:18.329Z,3.42
2018-02-02T00:27:45.946Z,3.70
2018-02-02T00:30:14.363Z,3.75
2018-02-02T00:32:41.971Z,3.60
2018-02-02T00:35:09.590Z,3.65
2018-02-02T00:37:38.001Z,4.07
2018-02-02T00:40:05.611Z,3.37
2018-02-02T00:42:33.213Z,4.00
2018-02-02T00:45:01.626Z,3.03
2018-02-02T00:47:29.238Z,4.87
2018-02-02T00:49:56.853Z,3.12
2018-02-02T00:52:25.260Z,3.00
2018-02-02T00:54:52.873Z,12.90
2018-02-02T00:57:20.485Z,3.35
2018-02-02T00:59:48.124Z,4.70
2018-02-02T01:02:15.729Z,4.45
2018-02-02T01:04:43.337Z,6.37
2018-02-02T01:07:10.984Z,7.25
2018-02-02T01:09:38.602Z,3.75
2018-02-02T01:12:06.209Z,3.72
2018-02-02T01:14:33.848Z,4.55
2018-02-02T01:17:01.456Z,3.80
2018-02-02T01:19:29.071Z,3.03
2018-02-02T01:21:57.493Z,3.60
2018-02-02T01:24:25.097Z,3.92
2018-02-02T01:26:52.702Z,3.10
2018-02-02T01:29:21.112Z,4.15
2018-02-02T01:31:48.721Z,7.68
2018-02-02T01:34:16.323Z,3.80
2018-02-02T01:36:43.961Z,3.53
2018-02-02T01:39:11.568Z,3.00
2018-02-02T01:41:39.176Z,3.47
2018-02-02T01:44:06.821Z,2.78
2018-02-02T01:46:34.558Z,2.62
2018-02-02T01:49:02.163Z,3.35
2018-02-02T01:51:29.806Z,2.95
2018-02-02T01:53:57.417Z,2.47
2018-02-02T01:56:25.029Z,3.22
2018-02-02T01:58:52.683Z,5.75
2018-02-02T02:01:21.062Z,2.92
2018-02-02T02:03:49.440Z,3.67
2018-02-02T02:06:17.087Z,2.75
2018-02-02T02:08:44.705Z,3.95
2018-02-02T02:11:13.077Z,5.10
2018-02-02T02:13:40.718Z,5.45
2018-02-02T02:16:08.333Z,3.10
2018-02-02T02:18:35.937Z,3.20
2018-02-02T02:21:03.585Z,6.25
2018-02-02T02:23:31.189Z,4.03
2018-02-02T02:25:58.785Z,4.97
2018-02-02T02:28:26.426Z,3.47
2018-02-02T02:30:54.793Z,5.68
2018-02-02T02:33:22.409Z,3.65
2018-02-02T02:35:50.068Z,5.05
2018-02-02T02:38:18.440Z,6.12
2018-02-02T02:40:46.075Z,4.65
2018-02-02T02:43:13.716Z,4.47
2018-02-02T02:45:41.425Z,4.20
2018-02-02T02:48:09.037Z,3.20
2018-02-02T02:50:36.684Z,5.05
2018-02-02T02:53:04.289Z,3.58
2018-02-02T02:55:32.675Z,6.25
2018-02-02T02:58:01.090Z,5.00
2018-02-02T03:00:28.701Z,4.37
2018-02-02T03:02:56.313Z,3.17
2018-02-02T03:05:23.957Z,5.50
2018-02-02T03:07:51.561Z,4.93
2018-02-02T03:10:19.165Z,4.00
2018-02-02T03:12:46.800Z,6.30
2018-02-02T03:15:14.406Z,3.40
2018-02-02T03:17:42.768Z,3.22
2018-02-02T03:20:10.414Z,3.25
2018-02-02T03:22:38.021Z,4.32
2018-02-02T03:25:05.631Z,3.87
2018-02-02T03:27:33.261Z,4.47
2018-02-02T03:30:00.873Z,2.97
2018-02-02T03:32:28.480Z,3.30
2018-02-02T03:34:56.122Z,3.00
2018-02-02T03:37:23.729Z,5.30
2018-02-02T03:39:51.325Z,5.45
2018-02-02T03:42:18.965Z,4.10
2018-02-02T03:44:46.577Z,6.87
2018-02-02T03:47:14.188Z,3.28
2018-02-02T03:49:41.829Z,2.80
2018-02-02T03:52:09.425Z,4.60
2018-02-02T03:54:37.797Z,2.65
2018-02-02T03:57:05.437Z,3.20
2018-02-02T03:59:33.037Z,5.78
2018-02-02T04:02:00.649Z,4.40
2018-02-02T04:04:28.288Z,5.10
2018-02-02T04:06:55.905Z,4.05
2018-02-02T04:09:23.510Z,4.45
2018-02-02T04:11:51.166Z,3.55
2018-02-02T04:14:18.769Z,5.10
2018-02-02T04:16:46.409Z,5.82
2018-02-02T04:19:14.049Z,6.70
2018-02-02T04:21:42.490Z,6.35
2018-02-02T04:24:10.092Z,4.75
2018-02-02T04:26:37.744Z,6.12
2018-02-02T04:29:05.349Z,5.40
2018-02-02T04:31:32.960Z,6.22
2018-02-02T04:34:00.596Z,7.32
2018-02-02T04:36:28.231Z,8.82
2018-02-02T04:38:55.840Z,5.68
2018-02-02T04:41:23.493Z,5.93
2018-02-02T04:43:53.101Z,5.10
2018-02-02T04:46:20.997Z,5.97
2018-02-02T04:48:48.628Z,5.50
2018-02-02T04:51:16.225Z,4.72
2018-02-02T04:53:43.829Z,6.15
2018-02-02T04:56:11.463Z,5.07
2018-02-02T04:58:39.070Z,5.57
2018-02-02T05:01:06.677Z,6.12
2018-02-02T05:03:35.120Z,7.97
2018-02-02T05:06:02.729Z,5.75
2018-02-02T05:08:30.341Z,5.93
2018-02-02T05:10:57.982Z,7.00
2018-02-02T05:13:26.360Z,4.93
2018-02-02T05:15:53.970Z,4.75
2018-02-02T05:18:21.618Z,5.62
2018-02-02T05:20:50.709Z,4.35
2018-02-02T05:23:18.313Z,4.37
2018-02-02T05:25:46.725Z,6.32
2018-02-02T05:28:14.337Z,5.95
2018-02-02T05:30:41.944Z,4.18
2018-02-02T05:33:10.369Z,7.37
2018-02-02T05:35:37.980Z,6.82
2018-02-02T05:38:05.585Z,5.78
2018-02-02T05:40:34.027Z,7.65
2018-02-02T05:43:01.636Z,9.93
2018-02-02T05:45:29.265Z,7.57
2018-02-02T05:47:56.904Z,6.75
2018-02-02T05:50:25.277Z,5.72
2018-02-02T05:52:52.872Z,4.55
2018-02-02T05:55:21.283Z,8.45
2018-02-02T05:57:48.888Z,6.53
2018-02-02T06:00:16.506Z,4.85
2018-02-02T06:02:44.916Z,9.02
2018-02-02T06:05:12.524Z,5.50
2018-02-02T06:07:40.146Z,5.10
2018-02-02T06:10:08.575Z,6.97
2018-02-02T06:12:36.181Z,6.18
2018-02-02T06:15:03.816Z,5.95
2018-02-02T06:17:31.456Z,6.87
2018-02-02T06:19:59.824Z,7.18
2018-02-02T06:22:27.441Z,6.03
2018-02-02T06:24:55.097Z,5.62
2018-02-02T06:27:23.476Z,5.55
2018-02-02T06:29:51.117Z,4.30
2018-02-02T06:32:18.778Z,4.30
2018-02-02T06:34:46.441Z,5.70
2018-02-02T06:37:14.062Z,5.10
2018-02-02T06:39:41.704Z,8.32
2018-02-02T06:42:09.391Z,9.77
2018-02-02T06:44:37.005Z,9.52
2018-02-02T06:47:05.425Z,6.78
2018-02-02T06:49:33.028Z,5.43
2018-02-02T06:52:00.639Z,8.38
2018-02-02T06:54:28.313Z,4.45
2018-02-02T06:56:56.697Z,5.15
2018-02-02T06:59:24.309Z,7.03
2018-02-02T07:01:51.958Z,5.50
2018-02-02T07:04:21.023Z,8.80
2018-02-02T07:06:48.659Z,6.07
2018-02-02T07:09:17.082Z,6.87
2018-02-02T07:11:44.685Z,5.80
2018-02-02T07:14:12.297Z,6.47
2018-02-02T07:16:39.945Z,9.05
2018-02-02T07:19:07.558Z,8.38
2018-02-02T07:21:35.169Z,6.97
2018-02-02T07:24:02.818Z,7.72
2018-02-02T07:26:30.426Z,8.45
2018-02-02T07:28:58.041Z,8.38
2018-02-02T07:31:26.449Z,7.97
2018-02-02T07:33:54.066Z,6.03
2018-02-02T07:36:21.673Z,6.40
2018-02-02T07:38:50.124Z,6.47
2018-02-02T07:41:17.743Z,7.18
2018-02-02T07:43:46.122Z,8.80
2018-02-02T07:46:14.535Z,8.02
2018-02-02T07:48:42.145Z,5.78
2018-02-02T07:51:09.750Z,7.15
2018-02-02T07:53:37.389Z,8.13
2018-02-02T07:56:04.996Z,8.45
2018-02-02T07:58:33.400Z,8.88
2018-02-02T08:01:07.382Z,9.25
2018-02-02T08:03:35.001Z,11.70
2018-02-02T08:06:03.380Z,9.18
2018-02-02T08:08:31.034Z,12.27
2018-02-02T08:10:58.645Z,10.45
2018-02-02T08:13:27.021Z,10.77
2018-02-02T08:15:54.665Z,7.72
2018-02-02T08:18:22.297Z,8.77
2018-02-02T08:20:49.906Z,9.10
2018-02-02T08:23:17.543Z,8.25
2018-02-02T08:25:45.155Z,7.57
2018-02-02T08:28:12.758Z,8.90
2018-02-02T08:30:40.393Z,8.95
2018-02-02T08:33:07.997Z,6.75
2018-02-02T08:35:35.608Z,6.45
2018-02-02T08:38:04.012Z,9.40
2018-02-02T08:40:31.629Z,7.78
2018-02-02T08:42:59.403Z,7.05
2018-02-02T08:45:27.043Z,5.68
2018-02-02T08:47:54.665Z,7.03
2018-02-02T08:50:22.378Z,5.40
2018-02-02T08:52:50.038Z,6.20
2018-02-02T08:55:17.647Z,6.28
2018-02-02T08:57:45.339Z,6.85
2018-02-02T09:00:12.988Z,6.15
2018-02-02T09:02:40.592Z,5.70
2018-02-02T09:05:08.209Z,8.30
2018-02-02T09:07:36.608Z,6.28
2018-02-02T09:10:04.215Z,6.05
2018-02-02T09:12:31.827Z,6.80
2018-02-02T09:14:59.477Z,8.77
2018-02-02T09:17:27.089Z,7.75
2018-02-02T09:19:55.480Z,6.70
2018-02-02T09:22:23.901Z,6.35
2018-02-02T09:24:51.504Z,5.53
2018-02-02T09:27:18.622Z,6.40
2018-02-02T09:29:47.030Z,3.80
2018-02-02T09:32:14.648Z,3.95
2018-02-02T09:34:42.273Z,4.37
2018-02-02T09:37:09.972Z,3.42
2018-02-02T09:39:37.610Z,4.65
2018-02-02T09:42:06.021Z,5.78
2018-02-02T09:44:33.692Z,5.20
2018-02-02T09:47:01.323Z,3.35
2018-02-02T09:49:28.943Z,4.47
2018-02-02T09:51:56.594Z,3.15
2018-02-02T09:54:24.977Z,3.15
2018-02-02T09:56:53.362Z,2.80
2018-02-02T09:59:21.009Z,4.93
2018-02-02T10:01:48.613Z,3.92
2018-02-02T10:04:16.229Z,3.15
2018-02-02T10:06:43.886Z,2.67
2018-02-02T10:09:11.499Z,2.60
2018-02-02T10:11:39.106Z,3.20
2018-02-02T10:14:07.528Z,2.62
2018-02-02T10:16:35.132Z,3.20
2018-02-02T10:19:02.755Z,3.08
2018-02-02T10:21:31.164Z,2.92
2018-02-02T10:23:58.771Z,3.35
2018-02-02T10:26:26.377Z,3.75
2018-02-02T10:28:54.021Z,2.20
2018-02-02T10:31:21.637Z,3.62
2018-02-02T10:33:49.274Z,2.25
2018-02-02T10:36:16.954Z,3.22
2018-02-02T10:38:44.561Z,4.87
2018-02-02T10:41:12.936Z,2.80
2018-02-02T10:43:40.585Z,2.65
2018-02-02T10:46:08.198Z,2.62
2018-02-02T10:48:36.577Z,2.70
2018-02-02T10:51:04.224Z,2.60
2018-02-02T10:53:31.837Z,2.85
2018-02-02T10:56:00.212Z,2.85
2018-02-02T10:58:27.858Z,2.97
2018-02-02T11:01:01.247Z,2.92
2018-02-02T11:06:32.610Z,6.18
2018-02-02T11:09:00.270Z,3.15
2018-02-02T11:11:27.880Z,3.22
2018-02-02T11:13:56.253Z,5.22
2018-02-02T11:16:24.664Z,5.40
2018-02-02T11:18:53.036Z,3.60
2018-02-02T11:21:21.409Z,3.15
2018-02-02T11:23:49.067Z,3.72
2018-02-02T11:26:16.678Z,3.50
2018-02-02T11:28:45.063Z,3.37
2018-02-02T11:31:12.709Z,3.10
2018-02-02T11:33:40.313Z,4.22
2018-02-02T11:36:08.689Z,4.03
2018-02-02T11:38:36.333Z,2.30
2018-02-02T11:41:03.932Z,3.03
2018-02-02T11:43:31.528Z,2.85
2018-02-02T11:45:59.949Z,3.00
2018-02-02T11:48:27.569Z,2.53
2018-02-02T11:50:55.179Z,2.40
2018-02-02T11:53:23.618Z,3.05
2018-02-02T11:55:51.226Z,2.87
2018-02-02T11:58:18.830Z,3.65
2018-02-02T12:00:46.473Z,3.87
2018-02-02T12:03:14.089Z,4.05
2018-02-02T12:05:41.690Z,2.30
2018-02-02T12:08:09.339Z,4.70
2018-02-02T12:10:36.949Z,6.03
2018-02-02T12:13:04.561Z,3.60
2018-02-02T12:15:32.982Z,3.87
2018-02-02T12:18:00.589Z,4.70
2018-02-02T12:20:28.197Z,5.45
2018-02-02T12:25:59.750Z,3.25
2018-02-02T12:31:39.088Z,2.78
2018-02-02T12:34:12.368Z,3.65
2018-02-02T12:36:39.982Z,2.70
2018-02-02T12:39:07.898Z,4.10
2018-02-02T12:41:35.553Z,2.42
2018-02-02T12:44:03.165Z,2.72
2018-02-02T12:46:30.769Z,1.60
2018-02-02T12:48:59.189Z,2.62
2018-02-02T12:51:26.843Z,2.28
2018-02-02T12:53:54.480Z,2.28
2018-02-02T12:56:22.120Z,3.20
2018-02-02T12:58:49.736Z,2.95
2018-02-02T13:01:17.341Z,2.30
2018-02-02T13:03:44.982Z,3.30
2018-02-02T13:06:12.593Z,4.85
2018-02-02T13:08:40.205Z,3.40
2018-02-02T13:11:07.850Z,4.68
2018-02-02T13:13:35.453Z,4.10
2018-02-02T13:16:03.069Z,4.55
2018-02-02T13:18:31.477Z,7.12
2018-02-02T13:20:59.072Z,5.32
2018-02-02T13:23:26.688Z,7.15
2018-02-02T13:25:55.112Z,4.30
2018-02-02T13:28:22.713Z,3.47
2018-02-02T13:30:50.320Z,2.70
2018-02-02T13:33:18.747Z,3.95
2018-02-02T13:35:46.351Z,2.55
2018-02-02T13:38:13.957Z,5.93
2018-02-02T13:40:42.361Z,1.90
2018-02-02T13:43:10.729Z,4.45
2018-02-02T13:45:38.331Z,3.78
2018-02-02T13:48:05.968Z,2.90
2018-02-02T13:50:33.586Z,3.30
2018-02-02T13:53:01.188Z,3.08
2018-02-02T13:55:28.828Z,5.07
2018-02-02T13:57:56.445Z,2.30
2018-02-02T14:00:24.058Z,3.15
2018-02-02T14:02:52.460Z,2.55
2018-02-02T14:05:20.828Z,2.97
2018-02-02T14:07:48.527Z,2.87
2018-02-02T14:10:16.141Z,4.28
2018-02-02T14:12:43.745Z,3.03
2018-02-02T14:15:11.355Z,3.42
2018-02-02T14:17:39.104Z,4.40
2018-02-02T14:20:06.714Z,3.80
2018-02-02T14:22:34.322Z,3.50
2018-02-02T14:25:01.962Z,3.22
2018-02-02T14:27:29.570Z,7.25
2018-02-02T14:29:57.178Z,4.15
2018-02-02T14:32:25.589Z,3.03
2018-02-02T14:34:53.952Z,2.53
2018-02-02T14:37:21.548Z,4.10
2018-02-02T14:39:49.954Z,3.15
2018-02-02T14:42:17.578Z,2.55
2018-02-02T14:44:45.182Z,4.60
2018-02-02T14:47:13.593Z,4.80
2018-02-02T14:49:41.204Z,3.05
2018-02-02T14:52:08.809Z,4.82
2018-02-02T14:54:36.754Z,4.22
2018-02-02T14:57:04.367Z,5.82
2018-02-02T14:59:32.002Z,3.35
2018-02-02T15:01:59.661Z,4.18
2018-02-02T15:04:27.269Z,4.18
2018-02-02T15:06:54.877Z,6.40
2018-02-02T15:09:23.291Z,3.85
2018-02-02T15:11:50.912Z,5.00
2018-02-02T15:14:18.518Z,4.65
2018-02-02T15:16:46.937Z,2.47
2018-02-02T15:19:15.461Z,2.85
2018-02-02T15:21:43.068Z,4.95
2018-02-02T15:24:10.705Z,3.35
2018-02-02T15:26:38.310Z,3.37
2018-02-02T15:29:06.688Z,3.30
2018-02-02T15:31:34.341Z,3.70
2018-02-02T15:34:01.941Z,3.67
2018-02-02T15:36:29.542Z,5.68
2018-02-02T15:38:57.184Z,6.95
2018-02-02T15:41:24.810Z,5.90
2018-02-02T15:43:52.409Z,6.97
2018-02-02T15:46:20.049Z,11.38
2018-02-02T15:48:47.653Z,7.35
2018-02-02T15:51:15.276Z,7.78
2018-02-02T15:53:43.689Z,8.30
2018-02-02T15:56:11.305Z,7.62
2018-02-02T15:58:38.916Z,11.20
2018-02-02T16:01:07.320Z,8.65
2018-02-02T16:03:34.936Z,10.73
2018-02-02T16:06:02.541Z,6.68
2018-02-02T16:08:30.186Z,9.95
2018-02-02T16:10:57.792Z,8.52
2018-02-02T16:13:26.172Z,7.15
2018-02-02T16:15:53.813Z,7.03
2018-02-02T16:18:21.444Z,11.48
2018-02-02T16:20:49.817Z,4.43
2018-02-02T16:23:17.474Z,5.75
2018-02-02T16:25:45.858Z,5.62
2018-02-02T16:28:13.465Z,6.72
2018-02-02T16:30:41.878Z,5.47
2018-02-02T16:33:09.488Z,6.22
2018-02-02T16:35:37.102Z,8.80
2018-02-02T16:38:05.513Z,7.45
2018-02-02T16:40:33.129Z,12.07
2018-02-02T16:43:00.735Z,9.35
2018-02-02T16:45:28.395Z,6.37
2018-02-02T16:47:56.013Z,9.05
2018-02-02T16:50:23.626Z,7.97
2018-02-02T16:52:51.269Z,4.47
2018-02-02T16:55:18.875Z,6.93
2018-02-02T16:57:46.483Z,6.05
2018-02-02T17:00:14.199Z,5.97
2018-02-02T17:02:42.545Z,5.15
2018-02-02T17:05:10.165Z,14.05
2018-02-02T17:07:37.808Z,10.60
2018-02-02T17:10:06.189Z,6.50
2018-02-02T17:12:34.569Z,12.98
2018-02-02T17:15:02.208Z,9.43
2018-02-02T17:17:29.809Z,5.68
2018-02-02T17:19:58.421Z,6.40
2018-02-02T17:22:26.067Z,6.68
2018-02-02T17:24:53.672Z,5.47
2018-02-02T17:27:21.278Z,6.28
2018-02-02T17:29:49.141Z,4.62
2018-02-02T17:32:17.989Z,7.35
2018-02-02T17:34:45.594Z,4.87
2018-02-02T17:37:13.233Z,5.65
2018-02-02T17:39:40.959Z,6.32
2018-02-02T17:42:09.571Z,5.15
2018-02-02T17:44:38.187Z,5.70
2018-02-02T17:47:05.792Z,5.55
2018-02-02T17:49:33.409Z,8.32
2018-02-02T17:52:01.820Z,7.00
2018-02-02T17:54:29.521Z,7.15
2018-02-02T17:56:57.134Z,11.57
2018-02-02T17:59:24.785Z,5.70
2018-02-02T18:01:58.180Z,5.25
2018-02-02T18:04:25.812Z,6.03
2018-02-02T18:06:59.972Z,4.55
2018-02-02T18:09:27.825Z,6.12
2018-02-02T18:11:56.694Z,6.15
2018-02-02T18:14:25.262Z,4.32
2018-02-02T18:16:53.065Z,4.80
2018-02-02T18:19:20.673Z,5.00
2018-02-02T18:21:48.281Z,4.00
2018-02-02T18:24:16.101Z,5.78
2018-02-02T18:26:43.712Z,6.25
2018-02-02T18:29:11.352Z,5.00
2018-02-02T18:31:39.825Z,5.90
2018-02-02T18:34:07.550Z,4.15
2018-02-02T18:36:35.463Z,6.10
2018-02-02T18:39:03.113Z,4.05
2018-02-02T18:41:30.741Z,5.32
2018-02-02T18:43:58.487Z,4.50
2018-02-02T18:46:26.167Z,6.25
2018-02-02T18:48:53.793Z,5.55
2018-02-02T18:51:21.445Z,4.62
2018-02-02T18:53:49.089Z,5.53
2018-02-02T18:56:16.685Z,3.83
2018-02-02T18:58:44.300Z,5.97
2018-02-02T19:01:11.982Z,5.30
2018-02-02T19:03:39.581Z,4.40
2018-02-02T19:06:07.314Z,4.20
2018-02-02T19:08:35.036Z,4.35
2018-02-02T19:11:02.650Z,4.95
2018-02-02T19:13:31.921Z,5.72
2018-02-02T19:16:00.841Z,5.37
2018-02-02T19:18:28.461Z,4.57
2018-02-02T19:20:56.126Z,5.05
2018-02-02T19:23:23.789Z,4.47
2018-02-02T19:25:52.248Z,5.12
2018-02-02T19:28:19.852Z,9.32
2018-02-02T19:30:48.597Z,6.15
2018-02-02T19:33:16.199Z,5.43
2018-02-02T19:35:43.803Z,6.47
2018-02-02T19:38:12.212Z,5.07
2018-02-02T19:40:39.929Z,7.78
2018-02-02T19:43:07.537Z,4.50
2018-02-02T19:45:35.213Z,6.68
2018-02-02T19:48:03.189Z,5.68
2018-02-02T19:50:30.937Z,5.10
2018-02-02T19:52:58.572Z,5.78
2018-02-02T19:55:27.907Z,5.97
2018-02-02T19:57:56.712Z,6.60
2018-02-02T20:00:24.621Z,5.75
2018-02-02T20:02:52.229Z,4.70
2018-02-02T20:05:21.884Z,5.47
2018-02-02T20:07:49.526Z,6.90
2018-02-02T20:10:18.146Z,5.68
2018-02-02T20:12:46.206Z,6.93
2018-02-02T20:15:13.913Z,7.03
2018-02-02T20:17:41.561Z,6.05
2018-02-02T20:20:10.236Z,10.15
2018-02-02T20:22:37.877Z,7.18
2018-02-02T20:25:05.481Z,5.90
2018-02-02T20:27:33.081Z,6.43
2018-02-02T20:30:00.726Z,5.75
2018-02-02T20:32:28.333Z,6.95
2018-02-02T20:34:56.466Z,8.60
2018-02-02T20:37:24.111Z,8.00
2018-02-02T20:39:52.321Z,7.60
2018-02-02T20:42:19.921Z,5.50
2018-02-02T20:44:47.564Z,6.05
2018-02-02T20:47:15.173Z,5.90
2018-02-02T20:49:42.781Z,5.40
2018-02-02T20:52:10.435Z,6.32
2018-02-02T20:54:38.802Z,5.85
2018-02-02T20:57:06.455Z,6.05
2018-02-02T20:59:34.097Z,5.75
2018-02-02T21:02:01.849Z,5.87
2018-02-02T21:04:30.521Z,4.80
2018-02-02T21:06:58.964Z,5.87
2018-02-02T21:09:26.692Z,8.52
2018-02-02T21:11:54.508Z,6.32
2018-02-02T21:14:22.959Z,4.32
2018-02-02T21:16:50.570Z,5.10
2018-02-02T21:19:18.941Z,4.72
2018-02-02T21:21:46.585Z,5.43
2018-02-02T21:24:14.188Z,5.57
2018-02-02T21:26:41.806Z,5.62
2018-02-02T21:29:09.481Z,5.75
2018-02-02T21:31:37.149Z,4.95
2018-02-02T21:34:04.769Z,6.00
2018-02-02T21:36:32.565Z,6.00
2018-02-02T21:39:00.256Z,4.50
2018-02-02T21:41:29.397Z,5.78
2018-02-02T21:43:57.042Z,5.53
2018-02-02T21:46:26.185Z,6.20
2018-02-02T21:48:54.576Z,5.37
2018-02-02T21:51:23.682Z,7.57
2018-02-02T21:53:51.304Z,5.93
2018-02-02T21:56:19.970Z,5.90
2018-02-02T21:58:48.440Z,8.70
2018-02-02T22:01:16.037Z,5.78
2018-02-02T22:03:44.397Z,6.43
2018-02-02T22:06:13.440Z,5.75
2018-02-02T22:08:42.199Z,6.03
2018-02-02T22:11:09.800Z,6.20
2018-02-02T22:13:38.288Z,6.45
2018-02-02T22:16:05.889Z,6.30
2018-02-02T22:18:33.860Z,5.93
2018-02-02T22:21:03.432Z,6.28
2018-02-02T22:23:32.634Z,7.18
2018-02-02T22:26:00.236Z,6.57
2018-02-02T22:28:28.155Z,7.37
2018-02-02T22:30:57.588Z,6.30
2018-02-02T22:33:25.196Z,8.52
2018-02-02T22:35:53.604Z,6.53
2018-02-02T22:38:22.405Z,6.55
2018-02-02T22:40:50.723Z,7.80
2018-02-02T22:43:19.402Z,8.50
2018-02-02T22:45:48.223Z,7.75
2018-02-02T22:48:17.603Z,7.40
2018-02-02T22:50:46.652Z,7.65
2018-02-02T22:53:14.256Z,9.82
2018-02-02T22:55:42.784Z,6.95
2018-02-02T22:58:11.579Z,6.95
2018-02-02T23:00:39.654Z,6.70
2018-02-02T23:03:08.026Z,7.15
2018-02-02T23:05:35.769Z,6.15
2018-02-02T23:08:03.388Z,7.12
2018-02-02T23:10:31.761Z,6.78
2018-02-02T23:12:59.407Z,7.43
2018-02-02T23:15:27.013Z,6.78
2018-02-02T23:17:54.670Z,7.37
2018-02-02T23:20:22.288Z,6.72
2018-02-02T23:22:50.702Z,6.95
2018-02-02T23:25:18.304Z,7.57
2018-02-02T23:27:46.082Z,6.15
2018-02-02T23:30:13.686Z,7.15
2018-02-02T23:32:41.340Z,7.35
2018-02-02T23:35:08.977Z,7.37
2018-02-02T23:37:36.762Z,7.87
2018-02-02T23:40:04.369Z,6.70
2018-02-02T23:42:32.005Z,8.13
2018-02-02T23:44:59.608Z,8.13
2018-02-02T23:47:27.221Z,7.10
2018-02-02T23:49:55.632Z,8.13
2018-02-02T23:52:23.251Z,7.60
2018-02-02T23:54:50.853Z,7.62
2018-02-02T23:57:19.262Z,7.80
2018-02-02T23:59:46.865Z,7.80
